createdAt,value
2018-01-05T00:00:16.553Z,2.27
2018-01-05T00:01:20.716Z,1.60
2018-01-05T00:02:24.913Z,1.67
2018-01-05T00:03:29.583Z,1.97
2018-01-05T00:04:34.360Z,1.70
2018-01-05T00:05:38.881Z,1.90
2018-01-05T00:06:43.190Z,1.33
2018-01-05T00:07:47.413Z,2.03
2018-01-05T00:08:51.662Z,1.90
2018-01-05T00:09:56.003Z,2.20
2018-01-05T00:11:02.555Z,2.20
2018-01-05T00:12:07.650Z,1.97
2018-01-05T00:13:11.863Z,2.13
2018-01-05T00:14:16.033Z,2.17
2018-01-05T00:15:20.984Z,2.23
2018-01-05T00:16:25.451Z,1.70
2018-01-05T00:17:29.896Z,1.60
2018-01-05T00:18:35.188Z,1.93
2018-01-05T00:19:40.142Z,3.33
2018-01-05T00:20:45.128Z,2.17
2018-01-05T00:21:49.457Z,2.10
2018-01-05T00:22:53.850Z,2.07
2018-01-05T00:23:58.357Z,2.40
2018-01-05T00:25:05.408Z,2.70
2018-01-05T00:26:09.701Z,2.43
2018-01-05T00:27:13.959Z,1.97
2018-01-05T00:28:18.156Z,1.80
2018-01-05T00:29:22.361Z,1.80
2018-01-05T00:30:26.555Z,2.17
2018-01-05T00:31:33.320Z,1.83
2018-01-05T00:32:38.378Z,2.20
2018-01-05T00:33:42.540Z,2.27
2018-01-05T00:34:46.708Z,2.00
2018-01-05T00:35:50.975Z,2.57
2018-01-05T00:36:55.949Z,2.17
2018-01-05T00:38:01.174Z,2.63
2018-01-05T00:39:06.401Z,2.50
2018-01-05T00:40:10.623Z,2.03
2018-01-05T00:41:14.884Z,2.40
2018-01-05T00:42:19.646Z,2.20
2018-01-05T00:43:24.068Z,2.50
2018-01-05T00:44:28.750Z,2.20
2018-01-05T00:45:34.315Z,2.10
2018-01-05T00:46:38.710Z,2.33
2018-01-05T00:47:43.044Z,2.30
2018-01-05T00:48:47.976Z,2.60
2018-01-05T00:49:53.019Z,2.70
2018-01-05T00:50:57.439Z,2.63
2018-01-05T00:52:03.678Z,1.80
2018-01-05T00:53:08.331Z,2.50
2018-01-05T00:54:12.521Z,1.67
2018-01-05T00:55:17.481Z,2.53
2018-01-05T00:56:22.606Z,2.30
2018-01-05T00:57:27.294Z,1.83
2018-01-05T00:58:33.182Z,1.90
2018-01-05T00:59:38.271Z,2.40
2018-01-05T01:00:43.200Z,1.97
2018-01-05T01:01:48.123Z,2.30
2018-01-05T01:02:53.321Z,1.67
2018-01-05T01:03:57.658Z,2.20
2018-01-05T01:05:02.525Z,2.13
2018-01-05T01:06:07.822Z,2.07
2018-01-05T01:07:12.570Z,2.63
2018-01-05T01:08:16.823Z,2.00
2018-01-05T01:09:21.052Z,2.73
2018-01-05T01:10:25.224Z,2.00
2018-01-05T01:11:31.360Z,2.70
2018-01-05T01:12:37.277Z,1.93
2018-01-05T01:13:41.501Z,3.67
2018-01-05T01:14:46.475Z,2.53
2018-01-05T01:15:50.774Z,2.03
2018-01-05T01:16:55.271Z,1.83
2018-01-05T01:18:01.664Z,1.57
2018-01-05T01:19:06.292Z,2.70
2018-01-05T01:20:11.548Z,2.20
2018-01-05T01:21:15.795Z,1.70
2018-01-05T01:22:20.066Z,1.73
2018-01-05T01:23:24.272Z,2.20
2018-01-05T01:24:29.098Z,2.00
2018-01-05T01:25:33.970Z,2.10
2018-01-05T01:26:38.702Z,2.07
2018-01-05T01:27:43.672Z,2.40
2018-01-05T01:28:47.857Z,2.83
2018-01-05T01:29:52.154Z,1.83
2018-01-05T01:30:56.522Z,2.23
2018-01-05T01:32:02.294Z,1.90
2018-01-05T01:33:07.097Z,2.07
2018-01-05T01:34:11.260Z,1.97
2018-01-05T01:35:15.498Z,2.33
2018-01-05T01:36:19.752Z,3.10
2018-01-05T01:37:23.949Z,3.40
2018-01-05T01:38:29.806Z,2.57
2018-01-05T01:39:35.083Z,2.60
2018-01-05T01:40:39.328Z,2.57
2018-01-05T01:41:43.673Z,2.33
2018-01-05T01:42:48.788Z,2.37
2018-01-05T01:43:54.897Z,2.47
2018-01-05T01:45:01.692Z,2.10
2018-01-05T01:46:06.885Z,2.00
2018-01-05T01:47:11.198Z,2.70
2018-01-05T01:48:16.165Z,3.47
2018-01-05T01:49:20.477Z,3.33
2018-01-05T01:50:26.376Z,2.70
2018-01-05T01:51:31.766Z,2.50
2018-01-05T01:52:36.769Z,2.60
2018-01-05T01:53:40.932Z,2.23
2018-01-05T01:54:45.128Z,2.40
2018-01-05T01:55:49.688Z,2.10
2018-01-05T01:56:54.080Z,3.10
2018-01-05T01:57:59.378Z,2.10
2018-01-05T01:59:04.523Z,2.30
2018-01-05T02:00:08.808Z,1.97
2018-01-05T02:01:13.117Z,3.10
2018-01-05T02:02:17.436Z,2.20
2018-01-05T02:03:21.677Z,2.40
2018-01-05T02:04:26.006Z,2.70
2018-01-05T02:05:31.690Z,2.60
2018-01-05T02:06:36.145Z,2.40
2018-01-05T02:07:40.362Z,2.60
2018-01-05T02:08:44.556Z,2.73
2018-01-05T02:09:48.791Z,2.17
2018-01-05T02:10:54.271Z,2.37
2018-01-05T02:11:59.861Z,2.67
2018-01-05T02:13:05.698Z,2.50
2018-01-05T02:14:10.006Z,2.70
2018-01-05T02:15:14.210Z,2.40
2018-01-05T02:16:18.390Z,2.60
2018-01-05T02:17:23.353Z,2.70
2018-01-05T02:18:27.569Z,2.23
2018-01-05T02:19:33.913Z,2.33
2018-01-05T02:20:38.407Z,2.60
2018-01-05T02:21:43.343Z,3.20
2018-01-05T02:22:48.267Z,2.23
2018-01-05T02:23:54.083Z,2.07
2018-01-05T02:24:59.466Z,2.77
2018-01-05T02:26:04.811Z,2.30
2018-01-05T02:27:09.869Z,2.90
2018-01-05T02:28:14.063Z,2.90
2018-01-05T02:29:18.231Z,3.10
2018-01-05T02:30:22.671Z,2.60
2018-01-05T02:31:27.054Z,3.40
2018-01-05T02:32:31.632Z,2.40
2018-01-05T02:33:35.995Z,2.33
2018-01-05T02:34:40.260Z,2.53
2018-01-05T02:35:44.476Z,1.80
2018-01-05T02:36:48.697Z,2.23
2018-01-05T02:37:53.090Z,2.70
2018-01-05T02:38:57.672Z,2.20
2018-01-05T02:40:03.219Z,3.47
2018-01-05T02:41:07.544Z,2.40
2018-01-05T02:42:11.738Z,2.57
2018-01-05T02:43:16.676Z,2.20
2018-01-05T02:44:21.392Z,2.47
2018-01-05T02:45:25.717Z,2.53
2018-01-05T02:46:31.791Z,2.47
2018-01-05T02:47:36.246Z,2.40
2018-01-05T02:48:40.421Z,1.90
2018-01-05T02:49:44.629Z,1.90
2018-01-05T02:50:48.860Z,2.00
2018-01-05T02:51:53.832Z,2.97
2018-01-05T02:52:58.359Z,2.57
2018-01-05T02:54:03.766Z,2.33
2018-01-05T02:55:08.011Z,2.80
2018-01-05T02:56:13.021Z,2.33
2018-01-05T02:57:18.021Z,2.30
2018-01-05T02:58:22.758Z,2.90
2018-01-05T02:59:27.605Z,2.03
2018-01-05T03:00:33.261Z,2.37
2018-01-05T03:01:38.279Z,2.43
2018-01-05T03:02:43.332Z,1.67
2018-01-05T03:03:47.534Z,2.27
2018-01-05T03:04:51.819Z,2.77
2018-01-05T03:05:56.183Z,2.70
2018-01-05T03:07:01.744Z,2.10
2018-01-05T03:08:06.438Z,2.10
2018-01-05T03:09:12.224Z,2.30
2018-01-05T03:10:16.412Z,2.13
2018-01-05T03:11:20.801Z,3.03
2018-01-05T03:12:25.192Z,2.73
2018-01-05T03:13:29.745Z,2.00
2018-01-05T03:14:35.611Z,2.10
2018-01-05T03:15:40.644Z,2.37
2018-01-05T03:16:44.903Z,2.53
2018-01-05T03:17:49.124Z,2.20
2018-01-05T03:18:53.400Z,2.83
2018-01-05T03:19:57.755Z,2.50
2018-01-05T03:21:04.612Z,2.50
2018-01-05T03:22:09.059Z,3.07
2018-01-05T03:23:13.248Z,2.50
2018-01-05T03:24:18.175Z,2.80
2018-01-05T03:25:23.268Z,2.73
2018-01-05T03:26:28.826Z,2.90
2018-01-05T03:27:35.301Z,2.57
2018-01-05T03:28:40.968Z,2.10
2018-01-05T03:29:45.957Z,1.93
2018-01-05T03:30:50.155Z,2.63
2018-01-05T03:31:54.352Z,2.73
2018-01-05T03:33:00.128Z,3.63
2018-01-05T03:34:06.308Z,3.07
2018-01-05T03:35:11.124Z,3.10
2018-01-05T03:36:15.358Z,2.00
2018-01-05T03:37:19.553Z,2.77
2018-01-05T03:38:24.608Z,2.10
2018-01-05T03:39:30.089Z,2.33
2018-01-05T03:40:36.579Z,1.90
2018-01-05T03:41:41.406Z,2.10
2018-01-05T03:42:45.612Z,1.73
2018-01-05T03:43:49.857Z,3.80
2018-01-05T03:44:54.057Z,2.13
2018-01-05T03:45:59.712Z,2.30
2018-01-05T03:47:04.641Z,2.40
2018-01-05T03:48:08.967Z,2.50
2018-01-05T03:49:13.200Z,2.03
2018-01-05T03:50:17.459Z,2.43
2018-01-05T03:51:22.490Z,2.13
2018-01-05T03:52:27.534Z,2.20
2018-01-05T03:53:33.279Z,2.60
2018-01-05T03:54:37.813Z,2.10
2018-01-05T03:55:42.399Z,1.97
2018-01-05T03:56:47.539Z,2.47
2018-01-05T03:57:52.625Z,2.10
2018-01-05T03:58:56.824Z,2.23
2018-01-05T04:00:01.955Z,2.40
2018-01-05T04:01:07.229Z,2.37
2018-01-05T04:02:11.574Z,1.57
2018-01-05T04:03:15.772Z,1.87
2018-01-05T04:04:20.721Z,1.30
2018-01-05T04:05:24.964Z,2.20
2018-01-05T04:06:30.141Z,2.00
2018-01-05T04:07:35.126Z,1.70
2018-01-05T04:08:40.554Z,1.40
2018-01-05T04:09:45.290Z,1.70
2018-01-05T04:10:49.536Z,1.27
2018-01-05T04:11:54.481Z,2.20
2018-01-05T04:13:00.659Z,1.37
2018-01-05T04:14:05.830Z,1.47
2018-01-05T04:15:10.304Z,1.80
2018-01-05T04:16:14.682Z,2.10
2018-01-05T04:17:19.727Z,1.50
2018-01-05T04:18:24.789Z,1.40
2018-01-05T04:19:31.158Z,1.23
2018-01-05T04:20:36.556Z,1.30
2018-01-05T04:21:42.120Z,0.93
2018-01-05T04:22:46.792Z,1.30
2018-01-05T04:23:51.028Z,1.00
2018-01-05T04:24:55.972Z,1.07
2018-01-05T04:26:01.590Z,0.97
2018-01-05T04:27:06.013Z,1.83
2018-01-05T04:28:10.723Z,0.90
2018-01-05T04:29:14.965Z,1.00
2018-01-05T04:30:19.939Z,1.10
2018-01-05T04:31:24.130Z,0.90
2018-01-05T04:32:29.327Z,0.90
2018-01-05T04:33:35.029Z,1.37
2018-01-05T04:34:40.204Z,1.00
2018-01-05T04:35:45.302Z,0.80
2018-01-05T04:36:49.497Z,1.37
2018-01-05T04:37:53.693Z,1.10
2018-01-05T04:38:57.993Z,1.17
2018-01-05T04:40:03.751Z,1.33
2018-01-05T04:41:08.840Z,0.80
2018-01-05T04:42:13.243Z,1.13
2018-01-05T04:43:17.428Z,0.73
2018-01-05T04:44:21.674Z,1.10
2018-01-05T04:45:26.650Z,0.70
2018-01-05T04:46:32.124Z,0.83
2018-01-05T04:47:37.189Z,0.80
2018-01-05T04:48:41.718Z,0.80
2018-01-05T04:49:46.749Z,0.60
2018-01-05T04:50:50.995Z,1.07
2018-01-05T04:51:55.226Z,1.03
2018-01-05T04:53:00.967Z,1.10
2018-01-05T04:54:06.110Z,0.83
2018-01-05T04:55:11.541Z,0.70
2018-01-05T04:56:15.778Z,1.10
2018-01-05T04:57:20.746Z,1.00
2018-01-05T04:58:24.964Z,1.10
2018-01-05T04:59:29.915Z,0.90
2018-01-05T05:00:35.307Z,0.83
2018-01-05T05:01:40.237Z,0.90
2018-01-05T05:02:44.599Z,0.80
2018-01-05T05:03:48.767Z,0.80
2018-01-05T05:04:52.966Z,0.80
2018-01-05T05:05:57.175Z,0.70
2018-01-05T05:07:05.388Z,0.60
2018-01-05T05:08:10.010Z,0.50
2018-01-05T05:09:15.140Z,0.33
2018-01-05T05:10:20.079Z,0.50
2018-01-05T05:11:24.281Z,0.50
2018-01-05T05:12:29.648Z,0.50
2018-01-05T05:13:35.864Z,0.77
2018-01-05T05:14:40.425Z,0.70
2018-01-05T05:15:44.631Z,0.80
2018-01-05T05:16:48.830Z,0.77
2018-01-05T05:17:53.016Z,0.60
2018-01-05T05:18:58.146Z,0.73
2018-01-05T05:20:04.857Z,0.70
2018-01-05T05:21:09.523Z,0.97
2018-01-05T05:22:13.821Z,0.73
2018-01-05T05:23:18.031Z,0.60
2018-01-05T05:24:22.282Z,0.50
2018-01-05T05:25:27.315Z,0.50
2018-01-05T05:26:33.981Z,1.10
2018-01-05T05:27:38.784Z,0.37
2018-01-05T05:28:43.144Z,0.50
2018-01-05T05:29:47.312Z,0.60
2018-01-05T05:30:52.321Z,0.50
2018-01-05T05:31:56.555Z,0.60
2018-01-05T05:33:01.566Z,0.87
2018-01-05T05:34:06.309Z,0.80
2018-01-05T05:35:11.295Z,0.60
2018-01-05T05:36:15.451Z,1.00
2018-01-05T05:37:20.413Z,0.60
2018-01-05T05:38:24.602Z,1.43
2018-01-05T05:39:29.116Z,0.50
2018-01-05T05:40:34.714Z,0.90
2018-01-05T05:41:39.721Z,0.60
2018-01-05T05:42:44.823Z,0.40
2018-01-05T05:43:48.995Z,0.60
2018-01-05T05:44:53.172Z,0.40
2018-01-05T05:45:57.612Z,0.70
2018-01-05T05:47:02.703Z,0.50
2018-01-05T05:48:07.429Z,0.60
2018-01-05T05:49:11.652Z,0.60
2018-01-05T05:50:15.896Z,0.70
2018-01-05T05:51:20.088Z,0.60
2018-01-05T05:52:24.279Z,1.17
2018-01-05T05:53:29.509Z,0.40
2018-01-05T05:54:35.290Z,0.73
2018-01-05T05:55:39.923Z,0.50
2018-01-05T05:56:44.485Z,0.50
2018-01-05T05:57:48.892Z,0.70
2018-01-05T05:58:53.143Z,0.60
2018-01-05T05:59:57.357Z,1.33
2018-01-05T06:01:02.667Z,0.80
2018-01-05T06:02:07.477Z,0.67
2018-01-05T06:03:11.875Z,0.87
2018-01-05T06:04:16.109Z,0.60
2018-01-05T06:05:20.289Z,0.87
2018-01-05T06:06:25.283Z,0.60
2018-01-05T06:07:31.214Z,0.50
2018-01-05T06:08:35.886Z,0.50
2018-01-05T06:09:40.900Z,0.60
2018-01-05T06:10:45.105Z,0.60
2018-01-05T06:11:49.335Z,0.70
2018-01-05T06:12:54.286Z,0.70
2018-01-05T06:14:00.551Z,1.50
2018-01-05T06:15:05.259Z,1.20
2018-01-05T06:16:09.750Z,0.90
2018-01-05T06:17:15.074Z,0.83
2018-01-05T06:18:19.269Z,0.70
2018-01-05T06:19:24.371Z,0.80
2018-01-05T06:20:29.485Z,0.80
2018-01-05T06:21:35.428Z,0.80
2018-01-05T06:22:40.776Z,0.63
2018-01-05T06:23:44.996Z,0.70
2018-01-05T06:24:49.197Z,1.10
2018-01-05T06:25:54.128Z,0.73
2018-01-05T06:27:00.576Z,0.80
2018-01-05T06:28:05.769Z,0.70
2018-01-05T06:29:10.197Z,0.87
2018-01-05T06:30:14.409Z,1.40
2018-01-05T06:31:18.580Z,0.87
2018-01-05T06:32:22.799Z,1.03
2018-01-05T06:33:27.006Z,0.67
2018-01-05T06:34:33.935Z,0.90
2018-01-05T06:35:38.784Z,1.00
2018-01-05T06:36:43.378Z,1.20
2018-01-05T06:37:47.616Z,0.97
2018-01-05T06:38:51.887Z,1.03
2018-01-05T06:39:56.077Z,0.60
2018-01-05T06:41:02.207Z,0.97
2018-01-05T06:42:08.061Z,0.70
2018-01-05T06:43:12.339Z,0.90
2018-01-05T06:44:17.395Z,0.60
2018-01-05T06:45:21.555Z,0.60
2018-01-05T06:46:29.404Z,0.90
2018-01-05T06:47:35.755Z,0.90
2018-01-05T06:48:40.124Z,0.70
2018-01-05T06:49:45.131Z,1.00
2018-01-05T06:50:49.288Z,0.60
2018-01-05T06:51:53.451Z,0.63
2018-01-05T06:52:57.724Z,0.90
2018-01-05T06:54:03.912Z,1.23
2018-01-05T06:55:08.416Z,1.27
2018-01-05T06:56:12.828Z,1.20
2018-01-05T06:57:16.995Z,0.80
2018-01-05T06:58:21.208Z,0.87
2018-01-05T06:59:25.420Z,0.77
2018-01-05T07:00:32.173Z,0.93
2018-01-05T07:01:37.298Z,1.13
2018-01-05T07:02:42.796Z,1.10
2018-01-05T07:03:46.960Z,0.50
2018-01-05T07:04:51.172Z,0.90
2018-01-05T07:05:55.381Z,1.37
2018-01-05T07:07:00.711Z,0.77
2018-01-05T07:08:06.294Z,1.07
2018-01-05T07:09:10.889Z,0.90
2018-01-05T07:10:15.123Z,1.73
2018-01-05T07:11:19.462Z,1.50
2018-01-05T07:12:23.748Z,0.80
2018-01-05T07:13:29.784Z,0.90
2018-01-05T07:14:34.573Z,1.10
2018-01-05T07:15:39.457Z,0.83
2018-01-05T07:16:43.695Z,1.00
2018-01-05T07:17:47.884Z,1.00
2018-01-05T07:18:52.076Z,0.90
2018-01-05T07:19:57.101Z,0.80
2018-01-05T07:21:03.720Z,0.93
2018-01-05T07:22:08.490Z,1.13
2018-01-05T07:23:12.827Z,0.87
2018-01-05T07:24:17.827Z,1.10
2018-01-05T07:25:22.083Z,1.23
2018-01-05T07:26:26.244Z,1.30
2018-01-05T07:27:32.239Z,0.87
2018-01-05T07:28:36.640Z,1.10
2018-01-05T07:29:41.873Z,1.40
2018-01-05T07:30:46.859Z,1.17
2018-01-05T07:31:51.020Z,0.60
2018-01-05T07:32:55.212Z,1.20
2018-01-05T07:34:02.033Z,1.17
2018-01-05T07:35:07.843Z,0.80
2018-01-05T07:36:12.140Z,1.20
2018-01-05T07:37:16.345Z,1.37
2018-01-05T07:38:20.541Z,1.13
2018-01-05T07:39:24.732Z,1.00
2018-01-05T07:40:31.072Z,0.97
2018-01-05T07:41:37.018Z,1.23
2018-01-05T07:42:41.491Z,1.07
2018-01-05T07:43:45.698Z,1.37
2018-01-05T07:44:49.920Z,1.30
2018-01-05T07:45:54.108Z,1.60
2018-01-05T07:46:58.621Z,1.10
2018-01-05T07:48:04.123Z,1.00
2018-01-05T07:49:08.492Z,1.00
2018-01-05T07:50:12.940Z,1.00
2018-01-05T07:51:17.186Z,1.30
2018-01-05T07:52:21.395Z,2.23
2018-01-05T07:53:25.548Z,1.30
2018-01-05T07:54:31.075Z,1.10
2018-01-05T07:55:37.342Z,1.87
2018-01-05T07:56:42.145Z,1.30
2018-01-05T07:57:46.310Z,1.40
2018-01-05T07:58:51.239Z,1.40
2018-01-05T07:59:56.194Z,1.23
2018-01-05T08:01:02.534Z,1.00
2018-01-05T08:02:07.244Z,1.33
2018-01-05T08:03:12.058Z,0.90
2018-01-05T08:04:17.115Z,0.90
2018-01-05T08:05:21.309Z,1.10
2018-01-05T08:06:26.289Z,1.00
2018-01-05T08:07:30.588Z,1.70
2018-01-05T08:08:35.178Z,0.97
2018-01-05T08:09:39.550Z,1.17
2018-01-05T08:10:43.899Z,1.10
2018-01-05T08:11:48.908Z,1.00
2018-01-05T08:12:53.109Z,1.27
2018-01-05T08:13:57.295Z,1.43
2018-01-05T08:15:03.389Z,1.43
2018-01-05T08:16:08.011Z,1.60
2018-01-05T08:17:13.796Z,1.30
2018-01-05T08:18:18.007Z,1.23
2018-01-05T08:19:22.264Z,1.10
2018-01-05T08:20:26.432Z,1.33
2018-01-05T08:21:33.485Z,1.27
2018-01-05T08:22:39.086Z,1.30
2018-01-05T08:23:43.506Z,1.40
2018-01-05T08:24:47.716Z,1.20
2018-01-05T08:25:51.872Z,0.97
2018-01-05T08:26:56.066Z,0.87
2018-01-05T08:28:03.615Z,1.00
2018-01-05T08:29:08.483Z,1.57
2018-01-05T08:30:12.815Z,1.23
2018-01-05T08:31:17.069Z,1.20
2018-01-05T08:32:21.207Z,1.57
2018-01-05T08:33:25.368Z,1.27
2018-01-05T08:34:32.067Z,1.10
2018-01-05T08:35:37.761Z,1.30
2018-01-05T08:36:42.794Z,1.13
2018-01-05T08:37:47.056Z,1.30
2018-01-05T08:38:51.287Z,1.50
2018-01-05T08:39:55.475Z,1.67
2018-01-05T08:41:00.999Z,1.40
2018-01-05T08:42:05.643Z,1.20
2018-01-05T08:43:10.902Z,2.03
2018-01-05T08:44:15.197Z,1.30
2018-01-05T08:45:19.380Z,1.37
2018-01-05T08:46:24.292Z,1.50
2018-01-05T08:47:28.985Z,1.57
2018-01-05T08:48:35.461Z,1.73
2018-01-05T08:49:39.974Z,1.00
2018-01-05T08:50:45.936Z,1.17
2018-01-05T08:51:50.099Z,1.80
2018-01-05T08:52:54.392Z,1.23
2018-01-05T08:53:59.445Z,1.07
2018-01-05T08:55:05.434Z,1.50
2018-01-05T08:56:10.976Z,1.17
2018-01-05T08:57:15.152Z,0.80
2018-01-05T08:58:19.344Z,1.40
2018-01-05T08:59:23.565Z,1.10
2018-01-05T09:00:30.340Z,0.80
2018-01-05T09:01:36.452Z,1.40
2018-01-05T09:02:41.611Z,2.20
2018-01-05T09:03:45.838Z,2.40
2018-01-05T09:04:50.078Z,1.70
2018-01-05T09:05:54.333Z,2.70
2018-01-05T09:06:59.212Z,1.03
2018-01-05T09:08:06.423Z,1.10
2018-01-05T09:09:11.029Z,2.03
2018-01-05T09:10:15.225Z,2.20
2018-01-05T09:11:19.534Z,1.70
2018-01-05T09:12:24.507Z,2.23
2018-01-05T09:13:30.049Z,5.67
2018-01-05T09:14:35.359Z,1.53
2018-01-05T09:15:39.584Z,1.53
2018-01-05T09:16:44.114Z,2.00
2018-01-05T09:17:48.300Z,1.27
2018-01-05T09:18:52.510Z,1.00
2018-01-05T09:19:56.729Z,1.90
2018-01-05T09:21:01.735Z,1.50
2018-01-05T09:22:06.295Z,1.20
2018-01-05T09:23:12.016Z,2.70
2018-01-05T09:24:16.272Z,1.43
2018-01-05T09:25:20.495Z,2.17
2018-01-05T09:26:24.684Z,2.93
2018-01-05T09:27:31.412Z,2.20
2018-01-05T09:28:36.322Z,1.40
2018-01-05T09:29:41.612Z,1.60
2018-01-05T09:30:45.789Z,3.10
2018-01-05T09:31:50.006Z,1.97
2018-01-05T09:32:54.416Z,1.30
2018-01-05T09:33:59.350Z,1.50
2018-01-05T09:35:05.217Z,1.27
2018-01-05T09:36:09.632Z,1.43
2018-01-05T09:37:14.632Z,2.30
2018-01-05T09:38:18.819Z,2.87
2018-01-05T09:39:23.798Z,1.70
2018-01-05T09:40:28.654Z,1.50
2018-01-05T09:41:35.519Z,1.73
2018-01-05T09:42:39.864Z,1.93
2018-01-05T09:43:44.083Z,2.97
2018-01-05T09:44:49.101Z,2.20
2018-01-05T09:45:54.822Z,5.40
2018-01-05T09:47:00.283Z,4.00
2018-01-05T09:48:06.460Z,3.20
2018-01-05T09:49:10.803Z,3.10
2018-01-05T09:50:15.850Z,4.83
2018-01-05T09:51:20.073Z,4.17
2018-01-05T09:52:24.256Z,3.07
2018-01-05T09:53:30.103Z,2.87
2018-01-05T09:54:35.640Z,2.67
2018-01-05T09:55:40.836Z,4.00
2018-01-05T09:56:45.249Z,5.33
2018-01-05T09:57:50.228Z,4.20
2018-01-05T09:58:54.392Z,2.60
2018-01-05T10:00:02.723Z,2.60
2018-01-05T10:01:07.383Z,4.53
2018-01-05T10:02:11.778Z,3.23
2018-01-05T10:03:15.980Z,4.00
2018-01-05T10:04:20.294Z,2.93
2018-01-05T10:05:24.491Z,2.57
2018-01-05T10:06:30.876Z,3.13
2018-01-05T10:07:35.863Z,2.97
2018-01-05T10:08:40.406Z,3.60
2018-01-05T10:09:45.536Z,3.60
2018-01-05T10:10:49.848Z,3.60
2018-01-05T10:11:54.162Z,4.40
2018-01-05T10:13:00.370Z,3.67
2018-01-05T10:14:05.585Z,3.13
2018-01-05T10:15:11.302Z,2.80
2018-01-05T10:16:15.504Z,3.60
2018-01-05T10:17:19.845Z,3.20
2018-01-05T10:18:24.012Z,4.90
2018-01-05T10:19:30.398Z,4.80
2018-01-05T10:20:36.142Z,6.30
2018-01-05T10:21:40.991Z,3.63
2018-01-05T10:22:45.187Z,3.40
2018-01-05T10:23:49.396Z,3.13
2018-01-05T10:24:53.674Z,4.17
2018-01-05T10:26:00.272Z,5.20
2018-01-05T10:27:05.256Z,3.37
2018-01-05T10:28:10.634Z,3.60
2018-01-05T10:29:14.832Z,2.97
2018-01-05T10:30:19.852Z,3.03
2018-01-05T10:31:24.794Z,3.70
2018-01-05T10:32:29.649Z,3.70
2018-01-05T10:33:35.549Z,4.10
2018-01-05T10:34:40.214Z,4.20
2018-01-05T10:35:44.552Z,3.33
2018-01-05T10:36:48.738Z,3.90
2018-01-05T10:37:52.924Z,4.00
2018-01-05T10:38:57.914Z,3.50
2018-01-05T10:40:03.976Z,4.27
2018-01-05T10:41:08.355Z,3.73
2018-01-05T10:42:14.236Z,3.90
2018-01-05T10:43:19.474Z,3.83
2018-01-05T10:44:23.723Z,4.23
2018-01-05T10:45:29.786Z,3.77
2018-01-05T10:46:36.187Z,3.40
2018-01-05T10:47:42.324Z,3.87
2018-01-05T10:48:46.523Z,3.93
2018-01-05T10:49:50.759Z,3.83
2018-01-05T10:50:54.932Z,4.37
2018-01-05T10:52:01.704Z,4.07
2018-01-05T10:53:08.160Z,4.90
2018-01-05T10:54:12.712Z,4.07
2018-01-05T10:55:17.098Z,4.97
2018-01-05T10:56:21.298Z,4.67
2018-01-05T10:57:25.884Z,4.73
2018-01-05T10:58:31.607Z,4.63
2018-01-05T10:59:36.532Z,4.27
2018-01-05T11:00:40.867Z,4.43
2018-01-05T11:01:45.046Z,4.77
2018-01-05T11:02:49.226Z,4.60
2018-01-05T11:03:54.161Z,4.40
2018-01-05T11:04:59.315Z,4.87
2018-01-05T11:06:05.899Z,4.70
2018-01-05T11:07:10.282Z,6.10
2018-01-05T11:08:14.820Z,4.47
2018-01-05T11:09:19.037Z,5.60
2018-01-05T11:10:23.243Z,5.30
2018-01-05T11:11:27.714Z,4.80
2018-01-05T11:12:35.027Z,5.67
2018-01-05T11:13:39.946Z,5.60
2018-01-05T11:14:45.101Z,5.27
2018-01-05T11:15:49.268Z,5.13
2018-01-05T11:16:54.317Z,6.33
2018-01-05T11:18:00.025Z,5.60
2018-01-05T11:19:04.714Z,5.30
2018-01-05T11:20:10.182Z,5.83
2018-01-05T11:21:14.541Z,5.80
2018-01-05T11:22:18.818Z,5.40
2018-01-05T11:23:23.797Z,4.70
2018-01-05T11:24:28.372Z,5.50
2018-01-05T11:25:35.098Z,5.03
2018-01-05T11:26:39.676Z,4.80
2018-01-05T11:27:44.232Z,4.90
2018-01-05T11:28:48.429Z,5.10
2018-01-05T11:29:52.593Z,5.60
2018-01-05T11:30:56.793Z,6.17
2018-01-05T11:32:05.164Z,5.80
2018-01-05T11:33:10.643Z,7.33
2018-01-05T11:34:14.849Z,8.17
2018-01-05T11:35:19.045Z,6.90
2018-01-05T11:36:23.640Z,6.47
2018-01-05T11:37:27.942Z,6.30
2018-01-05T11:38:34.365Z,5.17
2018-01-05T11:39:39.233Z,5.13
2018-01-05T11:40:43.727Z,6.17
2018-01-05T11:41:48.722Z,5.33
2018-01-05T11:42:52.925Z,5.73
2018-01-05T11:43:57.173Z,5.23
2018-01-05T11:45:03.720Z,5.90
2018-01-05T11:46:09.042Z,6.20
2018-01-05T11:47:14.169Z,5.90
2018-01-05T11:48:18.389Z,6.40
2018-01-05T11:49:22.754Z,5.77
2018-01-05T11:50:27.170Z,6.30
2018-01-05T11:51:33.020Z,6.47
2018-01-05T11:52:37.390Z,5.93
2018-01-05T11:53:42.464Z,6.20
2018-01-05T11:54:46.672Z,6.93
2018-01-05T11:55:50.875Z,6.67
2018-01-05T11:56:55.869Z,6.93
2018-01-05T11:58:02.832Z,7.73
2018-01-05T11:59:08.816Z,7.57
2018-01-05T12:00:13.122Z,7.53
2018-01-05T12:01:17.353Z,7.50
2018-01-05T12:02:22.356Z,7.77
2018-01-05T12:03:26.554Z,7.33
2018-01-05T12:04:37.148Z,7.57
2018-01-05T12:05:41.874Z,8.07
2018-01-05T12:06:47.950Z,8.07
2018-01-05T12:07:52.186Z,9.90
2018-01-05T12:08:56.346Z,8.33
2018-01-05T12:10:03.831Z,8.60
2018-01-05T12:11:08.228Z,9.00
2018-01-05T12:12:13.350Z,9.00
2018-01-05T12:13:17.579Z,9.00
2018-01-05T12:14:21.773Z,9.30
2018-01-05T12:15:25.995Z,9.50
2018-01-05T12:16:32.500Z,10.40
2018-01-05T12:17:37.300Z,8.53
2018-01-05T12:18:42.365Z,12.07
2018-01-05T12:19:46.615Z,10.33
2018-01-05T12:20:50.835Z,10.50
2018-01-05T12:21:55.020Z,9.53
2018-01-05T12:23:01.214Z,9.90
2018-01-05T12:24:06.002Z,11.23
2018-01-05T12:25:10.951Z,9.60
2018-01-05T12:26:15.944Z,10.60
2018-01-05T12:27:20.233Z,10.77
2018-01-05T12:28:24.465Z,10.63
2018-01-05T12:29:28.936Z,9.67
2018-01-05T12:30:34.116Z,10.73
2018-01-05T12:31:39.104Z,11.43
2018-01-05T12:32:43.296Z,10.90
2018-01-05T12:33:47.488Z,10.17
2018-01-05T12:34:51.843Z,11.10
2018-01-05T12:35:56.804Z,10.60
2018-01-05T12:37:03.911Z,9.97
2018-01-05T12:38:09.618Z,10.40
2018-01-05T12:39:14.747Z,11.00
2018-01-05T12:40:19.025Z,10.03
2018-01-05T12:41:23.216Z,10.63
2018-01-05T12:42:27.625Z,10.93
2018-01-05T12:43:32.354Z,10.73
2018-01-05T12:44:36.772Z,10.93
2018-01-05T12:45:41.029Z,11.67
2018-01-05T12:46:45.238Z,10.90
2018-01-05T12:47:49.452Z,11.07
2018-01-05T12:48:53.611Z,10.30
2018-01-05T12:49:58.203Z,10.80
2018-01-05T12:51:03.906Z,12.60
2018-01-05T12:52:09.668Z,11.33
2018-01-05T12:53:13.894Z,11.70
2018-01-05T12:54:18.094Z,11.20
2018-01-05T12:55:22.321Z,12.40
2018-01-05T12:56:26.488Z,11.63
2018-01-05T12:57:32.219Z,12.37
2018-01-05T12:58:38.105Z,12.63
2018-01-05T12:59:42.352Z,13.53
2018-01-05T13:00:46.588Z,13.60
2018-01-05T13:01:50.774Z,15.30
2018-01-05T13:02:54.935Z,14.57
2018-01-05T13:04:02.275Z,15.67
2018-01-05T13:05:07.267Z,15.07
2018-01-05T13:06:11.706Z,14.30
2018-01-05T13:07:15.725Z,14.03
2018-01-05T13:08:19.948Z,14.43
2018-01-05T13:09:24.141Z,14.70
2018-01-05T13:10:29.586Z,13.97
2018-01-05T13:11:35.275Z,15.20
2018-01-05T13:12:39.853Z,14.80
2018-01-05T13:13:44.081Z,13.57
2018-01-05T13:14:48.296Z,15.93
2018-01-05T13:15:52.479Z,15.07
2018-01-05T13:16:56.649Z,14.27
2018-01-05T13:18:02.531Z,13.57
2018-01-05T13:19:06.976Z,12.70
2018-01-05T13:20:12.385Z,12.60
2018-01-05T13:21:16.659Z,12.97
2018-01-05T13:22:20.864Z,12.93
2018-01-05T13:23:25.862Z,13.73
2018-01-05T13:24:30.835Z,11.90
2018-01-05T13:25:35.234Z,12.57
2018-01-05T13:26:40.287Z,12.70
2018-01-05T13:27:44.464Z,13.03
2018-01-05T13:28:48.662Z,11.77
2018-01-05T13:29:53.722Z,11.57
2018-01-05T13:30:58.907Z,12.67
2018-01-05T13:32:03.241Z,12.13
2018-01-05T13:33:07.528Z,11.47
2018-01-05T13:34:12.398Z,11.43
2018-01-05T13:35:17.391Z,10.97
2018-01-05T13:36:21.651Z,11.17
2018-01-05T13:37:25.862Z,10.67
2018-01-05T13:38:33.296Z,11.40
2018-01-05T13:39:39.329Z,11.10
2018-01-05T13:40:43.645Z,12.13
2018-01-05T13:41:47.844Z,10.00
2018-01-05T13:42:52.135Z,10.90
2018-01-05T13:43:57.109Z,11.40
2018-01-05T13:45:03.314Z,10.40
2018-01-05T13:46:08.605Z,10.73
2018-01-05T13:47:13.632Z,10.87
2018-01-05T13:48:17.921Z,8.67
2018-01-05T13:49:22.121Z,9.13
2018-01-05T13:50:26.340Z,10.17
2018-01-05T13:51:32.385Z,9.17
2018-01-05T13:52:37.003Z,9.80
2018-01-05T13:53:41.980Z,9.73
2018-01-05T13:54:46.223Z,9.13
2018-01-05T13:55:50.490Z,8.57
2018-01-05T13:56:54.688Z,9.13
2018-01-05T13:57:59.184Z,8.60
2018-01-05T13:59:04.664Z,7.67
2018-01-05T14:00:09.687Z,9.03
2018-01-05T14:01:13.910Z,9.23
2018-01-05T14:02:18.113Z,8.80
2018-01-05T14:03:22.338Z,8.77
2018-01-05T14:04:26.506Z,9.43
2018-01-05T14:05:31.809Z,8.87
2018-01-05T14:06:36.136Z,9.60
2018-01-05T14:07:41.112Z,10.93
2018-01-05T14:08:45.325Z,8.00
2018-01-05T14:09:49.504Z,9.80
2018-01-05T14:10:53.761Z,8.93
2018-01-05T14:11:57.972Z,10.00
2018-01-05T14:13:03.167Z,9.87
2018-01-05T14:14:07.633Z,10.57
2018-01-05T14:15:12.155Z,9.80
2018-01-05T14:16:16.351Z,8.53
2018-01-05T14:17:20.579Z,8.63
2018-01-05T14:18:24.757Z,8.63
2018-01-05T14:19:29.266Z,9.00